sensor_id;sensor_type;location;lat;lon;timestamp;temperature;humidity
21023;DHT22;10669;51.076;3.714;2022-11-20T00:01:21;5.80;94.60
21023;DHT22;10669;51.076;3.714;2022-11-20T00:03:47;5.80;95.10
21023;DHT22;10669;51.076;3.714;2022-11-20T00:06:16;6.20;95.30
21023;DHT22;10669;51.076;3.714;2022-11-20T00:08:42;6.00;83.90
21023;DHT22;10669;51.076;3.714;2022-11-20T00:11:12;5.80;90.80
21023;DHT22;10669;51.076;3.714;2022-11-20T00:13:38;5.80;92.90
21023;DHT22;10669;51.076;3.714;2022-11-20T00:16:07;6.00;94.50
21023;DHT22;10669;51.076;3.714;2022-11-20T00:18:35;6.00;91.00
21023;DHT22;10669;51.076;3.714;2022-11-20T00:21:10;6.00;91.70
21023;DHT22;10669;51.076;3.714;2022-11-20T00:23:36;5.90;91.00
21023;DHT22;10669;51.076;3.714;2022-11-20T00:26:06;6.20;89.50
21023;DHT22;10669;51.076;3.714;2022-11-20T00:28:32;6.50;86.50
21023;DHT22;10669;51.076;3.714;2022-11-20T00:31:08;6.30;80.80
21023;DHT22;10669;51.076;3.714;2022-11-20T00:33:36;6.10;82.40
21023;DHT22;10669;51.076;3.714;2022-11-20T00:36:03;6.00;86.40
21023;DHT22;10669;51.076;3.714;2022-11-20T00:38:33;6.40;88.10
21023;DHT22;10669;51.076;3.714;2022-11-20T00:41:03;6.60;72.00
21023;DHT22;10669;51.076;3.714;2022-11-20T00:43:29;6.60;72.10
21023;DHT22;10669;51.076;3.714;2022-11-20T00:46:02;6.70;74.50
21023;DHT22;10669;51.076;3.714;2022-11-20T00:48:28;6.90;64.90
21023;DHT22;10669;51.076;3.714;2022-11-20T00:50:55;7.00;61.90
21023;DHT22;10669;51.076;3.714;2022-11-20T00:53:21;6.60;60.20
21023;DHT22;10669;51.076;3.714;2022-11-20T00:56:02;6.80;66.80
21023;DHT22;10669;51.076;3.714;2022-11-20T00:58:30;6.80;61.10
21023;DHT22;10669;51.076;3.714;2022-11-20T01:01:01;6.50;63.70
21023;DHT22;10669;51.076;3.714;2022-11-20T01:03:27;6.70;72.10
21023;DHT22;10669;51.076;3.714;2022-11-20T01:05:53;6.80;69.20
21023;DHT22;10669;51.076;3.714;2022-11-20T01:08:18;6.60;62.70
21023;DHT22;10669;51.076;3.714;2022-11-20T01:10:44;6.30;67.50
21023;DHT22;10669;51.076;3.714;2022-11-20T01:13:09;6.50;74.10
21023;DHT22;10669;51.076;3.714;2022-11-20T01:15:53;6.60;71.60
21023;DHT22;10669;51.076;3.714;2022-11-20T01:18:19;6.60;67.90
21023;DHT22;10669;51.076;3.714;2022-11-20T01:20:45;6.40;70.70
21023;DHT22;10669;51.076;3.714;2022-11-20T01:23:11;6.40;71.00
21023;DHT22;10669;51.076;3.714;2022-11-20T01:25:37;6.30;73.60
21023;DHT22;10669;51.076;3.714;2022-11-20T01:28:04;6.30;76.60
21023;DHT22;10669;51.076;3.714;2022-11-20T01:30:30;6.60;80.20
21023;DHT22;10669;51.076;3.714;2022-11-20T01:32:56;6.60;70.20
21023;DHT22;10669;51.076;3.714;2022-11-20T01:35:22;6.30;74.80
21023;DHT22;10669;51.076;3.714;2022-11-20T01:37:51;6.10;73.30
21023;DHT22;10669;51.076;3.714;2022-11-20T01:40:17;6.20;83.70
21023;DHT22;10669;51.076;3.714;2022-11-20T01:42:55;6.60;71.50
21023;DHT22;10669;51.076;3.714;2022-11-20T01:46:05;6.90;61.90
21023;DHT22;10669;51.076;3.714;2022-11-20T01:48:42;7.00;53.20
21023;DHT22;10669;51.076;3.714;2022-11-20T01:51:18;6.90;54.70
21023;DHT22;10669;51.076;3.714;2022-11-20T01:53:46;6.90;54.40
21023;DHT22;10669;51.076;3.714;2022-11-20T01:56:13;6.60;54.40
21023;DHT22;10669;51.076;3.714;2022-11-20T01:58:47;6.40;59.20
21023;DHT22;10669;51.076;3.714;2022-11-20T02:01:14;6.50;70.60
21023;DHT22;10669;51.076;3.714;2022-11-20T02:03:40;6.70;65.30
21023;DHT22;10669;51.076;3.714;2022-11-20T02:06:28;6.60;57.40
21023;DHT22;10669;51.076;3.714;2022-11-20T02:08:55;6.50;62.00
21023;DHT22;10669;51.076;3.714;2022-11-20T02:11:21;6.70;66.10
21023;DHT22;10669;51.076;3.714;2022-11-20T02:13:47;6.90;60.30
21023;DHT22;10669;51.076;3.714;2022-11-20T02:18:43;6.90;59.80
21023;DHT22;10669;51.076;3.714;2022-11-20T02:21:28;6.80;49.80
21023;DHT22;10669;51.076;3.714;2022-11-20T02:24:04;6.80;56.10
21023;DHT22;10669;51.076;3.714;2022-11-20T02:29:24;6.20;65.70
21023;DHT22;10669;51.076;3.714;2022-11-20T02:31:53;6.50;68.20
21023;DHT22;10669;51.076;3.714;2022-11-20T02:34:20;6.60;66.50
21023;DHT22;10669;51.076;3.714;2022-11-20T02:36:46;6.70;64.10
21023;DHT22;10669;51.076;3.714;2022-11-20T02:39:15;6.60;61.30
21023;DHT22;10669;51.076;3.714;2022-11-20T02:41:42;6.30;61.10
21023;DHT22;10669;51.076;3.714;2022-11-20T02:44:09;6.30;69.40
21023;DHT22;10669;51.076;3.714;2022-11-20T02:46:34;6.30;73.10
21023;DHT22;10669;51.076;3.714;2022-11-20T02:49:02;6.50;78.10
21023;DHT22;10669;51.076;3.714;2022-11-20T02:51:28;6.60;71.70
21023;DHT22;10669;51.076;3.714;2022-11-20T02:53:54;6.40;67.60
21023;DHT22;10669;51.076;3.714;2022-11-20T02:56:20;6.30;69.30
21023;DHT22;10669;51.076;3.714;2022-11-20T02:58:45;6.50;78.20
21023;DHT22;10669;51.076;3.714;2022-11-20T03:01:11;6.60;80.20
21023;DHT22;10669;51.076;3.714;2022-11-20T03:03:36;7.00;74.00
21023;DHT22;10669;51.076;3.714;2022-11-20T03:06:02;6.90;63.80
21023;DHT22;10669;51.076;3.714;2022-11-20T03:08:28;6.80;64.30
21023;DHT22;10669;51.076;3.714;2022-11-20T03:10:55;6.90;67.60
21023;DHT22;10669;51.076;3.714;2022-11-20T03:13:20;6.80;62.40
21023;DHT22;10669;51.076;3.714;2022-11-20T03:15:46;6.70;66.50
21023;DHT22;10669;51.076;3.714;2022-11-20T03:18:12;6.60;67.10
21023;DHT22;10669;51.076;3.714;2022-11-20T03:20:39;6.50;71.30
21023;DHT22;10669;51.076;3.714;2022-11-20T03:23:04;6.30;69.80
21023;DHT22;10669;51.076;3.714;2022-11-20T03:25:31;6.10;77.00
21023;DHT22;10669;51.076;3.714;2022-11-20T03:27:57;6.40;85.40
21023;DHT22;10669;51.076;3.714;2022-11-20T03:30:22;6.30;75.50
21023;DHT22;10669;51.076;3.714;2022-11-20T03:32:49;6.00;81.20
21023;DHT22;10669;51.076;3.714;2022-11-20T03:35:17;6.40;89.00
21023;DHT22;10669;51.076;3.714;2022-11-20T03:37:43;6.60;82.20
21023;DHT22;10669;51.076;3.714;2022-11-20T03:40:09;6.60;81.40
21023;DHT22;10669;51.076;3.714;2022-11-20T03:42:35;6.90;71.70
21023;DHT22;10669;51.076;3.714;2022-11-20T03:45:15;6.80;59.60
21023;DHT22;10669;51.076;3.714;2022-11-20T03:47:42;6.40;60.90
21023;DHT22;10669;51.076;3.714;2022-11-20T03:50:10;6.10;75.70
21023;DHT22;10669;51.076;3.714;2022-11-20T03:52:36;6.40;83.70
21023;DHT22;10669;51.076;3.714;2022-11-20T03:55:02;6.60;81.30
21023;DHT22;10669;51.076;3.714;2022-11-20T03:57:27;6.80;71.30
21023;DHT22;10669;51.076;3.714;2022-11-20T03:59:54;7.10;65.70
21023;DHT22;10669;51.076;3.714;2022-11-20T04:02:19;7.00;54.00
21023;DHT22;10669;51.076;3.714;2022-11-20T04:04:45;7.10;59.30
21023;DHT22;10669;51.076;3.714;2022-11-20T04:07:12;7.10;58.70
21023;DHT22;10669;51.076;3.714;2022-11-20T04:09:37;7.10;60.30
21023;DHT22;10669;51.076;3.714;2022-11-20T04:12:03;7.20;60.60
21023;DHT22;10669;51.076;3.714;2022-11-20T04:14:30;7.30;56.90
21023;DHT22;10669;51.076;3.714;2022-11-20T04:16:56;7.30;53.70
21023;DHT22;10669;51.076;3.714;2022-11-20T04:19:22;7.10;54.10
21023;DHT22;10669;51.076;3.714;2022-11-20T04:21:49;7.00;60.20
21023;DHT22;10669;51.076;3.714;2022-11-20T04:24:14;7.10;65.70
21023;DHT22;10669;51.076;3.714;2022-11-20T04:26:40;6.90;67.20
21023;DHT22;10669;51.076;3.714;2022-11-20T04:29:10;6.90;69.20
21023;DHT22;10669;51.076;3.714;2022-11-20T04:31:36;6.80;72.50
21023;DHT22;10669;51.076;3.714;2022-11-20T04:34:05;6.90;75.30
21023;DHT22;10669;51.076;3.714;2022-11-20T04:36:31;6.90;72.50
21023;DHT22;10669;51.076;3.714;2022-11-20T04:39:01;6.90;71.10
21023;DHT22;10669;51.076;3.714;2022-11-20T04:41:30;6.60;71.40
21023;DHT22;10669;51.076;3.714;2022-11-20T04:43:58;6.20;74.80
21023;DHT22;10669;51.076;3.714;2022-11-20T04:46:32;6.00;86.50
21023;DHT22;10669;51.076;3.714;2022-11-20T04:48:59;6.40;91.80
21023;DHT22;10669;51.076;3.714;2022-11-20T04:51:25;6.10;89.40
21023;DHT22;10669;51.076;3.714;2022-11-20T04:53:50;6.20;91.60
21023;DHT22;10669;51.076;3.714;2022-11-20T04:56:16;6.30;92.20
21023;DHT22;10669;51.076;3.714;2022-11-20T04:58:42;6.50;93.10
21023;DHT22;10669;51.076;3.714;2022-11-20T05:01:15;6.60;93.10
21023;DHT22;10669;51.076;3.714;2022-11-20T05:03:41;6.70;88.10
21023;DHT22;10669;51.076;3.714;2022-11-20T05:06:09;6.50;84.40
21023;DHT22;10669;51.076;3.714;2022-11-20T05:08:35;6.40;87.60
21023;DHT22;10669;51.076;3.714;2022-11-20T05:11:06;6.60;90.50
21023;DHT22;10669;51.076;3.714;2022-11-20T05:13:32;7.00;75.80
21023;DHT22;10669;51.076;3.714;2022-11-20T05:16:07;6.90;64.80
21023;DHT22;10669;51.076;3.714;2022-11-20T05:18:35;6.70;71.50
21023;DHT22;10669;51.076;3.714;2022-11-20T05:21:01;6.40;84.30
21023;DHT22;10669;51.076;3.714;2022-11-20T05:23:30;6.30;91.60
21023;DHT22;10669;51.076;3.714;2022-11-20T05:25:57;6.30;93.90
21023;DHT22;10669;51.076;3.714;2022-11-20T05:28:23;6.30;94.50
21023;DHT22;10669;51.076;3.714;2022-11-20T05:30:51;6.20;96.40
21023;DHT22;10669;51.076;3.714;2022-11-20T05:33:21;6.20;98.10
21023;DHT22;10669;51.076;3.714;2022-11-20T05:35:46;6.30;98.80
21023;DHT22;10669;51.076;3.714;2022-11-20T05:38:16;6.30;98.90
21023;DHT22;10669;51.076;3.714;2022-11-20T05:40:42;6.20;98.50
21023;DHT22;10669;51.076;3.714;2022-11-20T05:43:10;6.30;99.90
21023;DHT22;10669;51.076;3.714;2022-11-20T05:45:36;6.50;99.90
21023;DHT22;10669;51.076;3.714;2022-11-20T05:48:02;6.50;98.30
21023;DHT22;10669;51.076;3.714;2022-11-20T05:50:28;6.40;97.50
21023;DHT22;10669;51.076;3.714;2022-11-20T05:52:54;6.30;96.70
21023;DHT22;10669;51.076;3.714;2022-11-20T05:55:21;6.20;99.50
21023;DHT22;10669;51.076;3.714;2022-11-20T05:57:48;6.20;99.90
21023;DHT22;10669;51.076;3.714;2022-11-20T06:00:19;6.20;99.90
21023;DHT22;10669;51.076;3.714;2022-11-20T06:02:51;6.20;99.90
21023;DHT22;10669;51.076;3.714;2022-11-20T06:05:16;6.20;99.90
21023;DHT22;10669;51.076;3.714;2022-11-20T06:07:45;6.30;99.90
21023;DHT22;10669;51.076;3.714;2022-11-20T06:10:12;6.40;99.90
21023;DHT22;10669;51.076;3.714;2022-11-20T06:12:43;6.40;99.90
21023;DHT22;10669;51.076;3.714;2022-11-20T06:15:10;6.40;99.90
21023;DHT22;10669;51.076;3.714;2022-11-20T06:17:35;6.30;99.90
21023;DHT22;10669;51.076;3.714;2022-11-20T06:20:01;6.60;99.90
21023;DHT22;10669;51.076;3.714;2022-11-20T06:22:27;6.70;99.90
21023;DHT22;10669;51.076;3.714;2022-11-20T06:24:52;6.70;99.90
21023;DHT22;10669;51.076;3.714;2022-11-20T06:27:18;6.70;99.90
21023;DHT22;10669;51.076;3.714;2022-11-20T06:29:44;6.70;96.80
21023;DHT22;10669;51.076;3.714;2022-11-20T06:32:10;6.50;97.90
21023;DHT22;10669;51.076;3.714;2022-11-20T06:34:37;6.50;99.90
21023;DHT22;10669;51.076;3.714;2022-11-20T06:37:04;6.40;99.90
21023;DHT22;10669;51.076;3.714;2022-11-20T06:39:29;6.50;99.90
21023;DHT22;10669;51.076;3.714;2022-11-20T06:41:58;6.50;99.90
21023;DHT22;10669;51.076;3.714;2022-11-20T06:44:24;6.50;99.90
21023;DHT22;10669;51.076;3.714;2022-11-20T06:46:49;6.70;99.90
21023;DHT22;10669;51.076;3.714;2022-11-20T06:49:18;6.70;99.90
21023;DHT22;10669;51.076;3.714;2022-11-20T06:51:44;6.60;99.90
21023;DHT22;10669;51.076;3.714;2022-11-20T06:54:09;6.80;99.90
21023;DHT22;10669;51.076;3.714;2022-11-20T06:56:35;6.80;99.90
21023;DHT22;10669;51.076;3.714;2022-11-20T06:59:04;7.00;99.90
21023;DHT22;10669;51.076;3.714;2022-11-20T07:01:32;7.00;99.90
21023;DHT22;10669;51.076;3.714;2022-11-20T07:04:03;7.10;99.90
21023;DHT22;10669;51.076;3.714;2022-11-20T07:06:29;7.10;99.90
21023;DHT22;10669;51.076;3.714;2022-11-20T07:08:56;7.10;97.00
21023;DHT22;10669;51.076;3.714;2022-11-20T07:11:22;7.30;97.90
21023;DHT22;10669;51.076;3.714;2022-11-20T07:13:49;7.50;93.70
21023;DHT22;10669;51.076;3.714;2022-11-20T07:16:15;7.50;91.90
21023;DHT22;10669;51.076;3.714;2022-11-20T07:18:41;7.40;92.50
21023;DHT22;10669;51.076;3.714;2022-11-20T07:21:10;7.30;90.70
21023;DHT22;10669;51.076;3.714;2022-11-20T07:23:36;7.40;94.20
21023;DHT22;10669;51.076;3.714;2022-11-20T07:26:10;7.50;90.90
21023;DHT22;10669;51.076;3.714;2022-11-20T07:28:36;7.60;86.40
21023;DHT22;10669;51.076;3.714;2022-11-20T07:31:02;7.60;84.50
21023;DHT22;10669;51.076;3.714;2022-11-20T07:33:29;7.60;86.20
21023;DHT22;10669;51.076;3.714;2022-11-20T07:35:57;7.50;89.90
21023;DHT22;10669;51.076;3.714;2022-11-20T07:38:23;7.30;88.10
21023;DHT22;10669;51.076;3.714;2022-11-20T07:40:53;7.40;93.60
21023;DHT22;10669;51.076;3.714;2022-11-20T07:43:19;7.50;92.00
21023;DHT22;10669;51.076;3.714;2022-11-20T07:45:45;7.40;91.80
21023;DHT22;10669;51.076;3.714;2022-11-20T07:48:12;7.30;94.50
21023;DHT22;10669;51.076;3.714;2022-11-20T07:50:40;7.50;96.80
21023;DHT22;10669;51.076;3.714;2022-11-20T07:53:06;7.70;92.80
21023;DHT22;10669;51.076;3.714;2022-11-20T07:55:32;7.50;86.50
21023;DHT22;10669;51.076;3.714;2022-11-20T07:57:58;7.60;93.00
21023;DHT22;10669;51.076;3.714;2022-11-20T08:00:25;7.50;91.20
21023;DHT22;10669;51.076;3.714;2022-11-20T08:02:51;7.50;92.40
21023;DHT22;10669;51.076;3.714;2022-11-20T08:05:17;7.40;93.60
21023;DHT22;10669;51.076;3.714;2022-11-20T08:07:44;7.40;91.60
21023;DHT22;10669;51.076;3.714;2022-11-20T08:10:12;7.50;94.60
21023;DHT22;10669;51.076;3.714;2022-11-20T08:12:48;7.60;94.70
21023;DHT22;10669;51.076;3.714;2022-11-20T08:15:33;7.90;90.70
21023;DHT22;10669;51.076;3.714;2022-11-20T08:18:05;7.80;91.20
21023;DHT22;10669;51.076;3.714;2022-11-20T08:20:32;7.90;88.80
21023;DHT22;10669;51.076;3.714;2022-11-20T08:23:03;7.90;89.80
21023;DHT22;10669;51.076;3.714;2022-11-20T08:25:30;7.80;86.60
21023;DHT22;10669;51.076;3.714;2022-11-20T08:28:01;7.60;93.00
21023;DHT22;10669;51.076;3.714;2022-11-20T08:30:29;7.70;93.90
21023;DHT22;10669;51.076;3.714;2022-11-20T08:33:04;7.60;93.00
21023;DHT22;10669;51.076;3.714;2022-11-20T08:35:37;7.70;97.40
21023;DHT22;10669;51.076;3.714;2022-11-20T08:38:08;8.00;93.60
21023;DHT22;10669;51.076;3.714;2022-11-20T08:40:34;7.70;94.80
21023;DHT22;10669;51.076;3.714;2022-11-20T08:43:00;7.50;92.90
21023;DHT22;10669;51.076;3.714;2022-11-20T08:45:26;7.60;98.10
21023;DHT22;10669;51.076;3.714;2022-11-20T08:47:51;7.70;95.30
21023;DHT22;10669;51.076;3.714;2022-11-20T08:50:18;7.70;95.00
21023;DHT22;10669;51.076;3.714;2022-11-20T08:52:44;7.70;96.80
21023;DHT22;10669;51.076;3.714;2022-11-20T08:55:10;8.00;94.80
21023;DHT22;10669;51.076;3.714;2022-11-20T08:57:36;7.80;91.80
21023;DHT22;10669;51.076;3.714;2022-11-20T09:00:05;7.60;95.30
21023;DHT22;10669;51.076;3.714;2022-11-20T09:02:31;7.80;97.50
21023;DHT22;10669;51.076;3.714;2022-11-20T09:04:58;7.90;95.40
21023;DHT22;10669;51.076;3.714;2022-11-20T09:07:25;7.90;92.30
21023;DHT22;10669;51.076;3.714;2022-11-20T09:09:52;7.90;95.70
21023;DHT22;10669;51.076;3.714;2022-11-20T09:12:17;7.90;95.30
21023;DHT22;10669;51.076;3.714;2022-11-20T09:14:43;7.90;96.00
21023;DHT22;10669;51.076;3.714;2022-11-20T09:17:10;8.00;96.30
21023;DHT22;10669;51.076;3.714;2022-11-20T09:19:39;7.80;95.10
21023;DHT22;10669;51.076;3.714;2022-11-20T09:22:06;7.90;98.90
21023;DHT22;10669;51.076;3.714;2022-11-20T09:24:32;8.00;96.60
21023;DHT22;10669;51.076;3.714;2022-11-20T09:26:58;8.00;97.80
21023;DHT22;10669;51.076;3.714;2022-11-20T09:29:27;8.00;99.90
21023;DHT22;10669;51.076;3.714;2022-11-20T09:31:52;8.20;99.90
21023;DHT22;10669;51.076;3.714;2022-11-20T09:34:18;8.50;97.00
21023;DHT22;10669;51.076;3.714;2022-11-20T09:36:45;8.60;94.10
21023;DHT22;10669;51.076;3.714;2022-11-20T09:39:10;8.80;94.40
21023;DHT22;10669;51.076;3.714;2022-11-20T09:41:41;8.80;92.70
21023;DHT22;10669;51.076;3.714;2022-11-20T09:44:32;8.90;90.90
21023;DHT22;10669;51.076;3.714;2022-11-20T09:50:12;9.10;90.10
21023;DHT22;10669;51.076;3.714;2022-11-20T09:55:15;9.00;86.90
21023;DHT22;10669;51.076;3.714;2022-11-20T09:57:44;9.10;90.80
21023;DHT22;10669;51.076;3.714;2022-11-20T10:00:13;9.00;91.00
21023;DHT22;10669;51.076;3.714;2022-11-20T10:05:30;9.30;92.30
21023;DHT22;10669;51.076;3.714;2022-11-20T10:17:03;9.70;75.40
21023;DHT22;10669;51.076;3.714;2022-11-20T10:23:37;9.40;83.40
21023;DHT22;10669;51.076;3.714;2022-11-20T10:30:57;9.20;91.50
21023;DHT22;10669;51.076;3.714;2022-11-20T10:33:27;9.20;93.00
21023;DHT22;10669;51.076;3.714;2022-11-20T10:41:27;9.40;90.10
21023;DHT22;10669;51.076;3.714;2022-11-20T10:44:20;9.10;92.50
21023;DHT22;10669;51.076;3.714;2022-11-20T10:47:05;9.20;96.10
21023;DHT22;10669;51.076;3.714;2022-11-20T10:49:34;9.20;96.50
21023;DHT22;10669;51.076;3.714;2022-11-20T11:00:13;9.20;91.50
21023;DHT22;10669;51.076;3.714;2022-11-20T11:02:48;9.10;93.60
21023;DHT22;10669;51.076;3.714;2022-11-20T11:07:56;9.00;95.80
21023;DHT22;10669;51.076;3.714;2022-11-20T11:13:07;9.10;94.40
21023;DHT22;10669;51.076;3.714;2022-11-20T11:15:44;9.10;93.40
21023;DHT22;10669;51.076;3.714;2022-11-20T11:18:11;9.00;93.80
21023;DHT22;10669;51.076;3.714;2022-11-20T11:20:37;9.00;95.40
21023;DHT22;10669;51.076;3.714;2022-11-20T11:23:03;8.90;95.40
21023;DHT22;10669;51.076;3.714;2022-11-20T11:25:32;8.90;95.10
21023;DHT22;10669;51.076;3.714;2022-11-20T11:28:19;9.00;96.20
21023;DHT22;10669;51.076;3.714;2022-11-20T11:30:45;9.00;95.90
21023;DHT22;10669;51.076;3.714;2022-11-20T11:33:19;9.00;94.40
21023;DHT22;10669;51.076;3.714;2022-11-20T11:35:48;9.00;96.00
21023;DHT22;10669;51.076;3.714;2022-11-20T11:41:07;8.80;95.40
21023;DHT22;10669;51.076;3.714;2022-11-20T11:43:37;8.70;99.50
21023;DHT22;10669;51.076;3.714;2022-11-20T11:51:39;8.70;99.90
21023;DHT22;10669;51.076;3.714;2022-11-20T11:54:20;8.70;99.90
21023;DHT22;10669;51.076;3.714;2022-11-20T11:56:48;8.60;99.90
21023;DHT22;10669;51.076;3.714;2022-11-20T12:00:13;8.60;99.90
21023;DHT22;10669;51.076;3.714;2022-11-20T12:05:16;8.50;99.90
21023;DHT22;10669;51.076;3.714;2022-11-20T12:07:51;8.40;99.90
21023;DHT22;10669;51.076;3.714;2022-11-20T12:15:59;8.40;99.90
21023;DHT22;10669;51.076;3.714;2022-11-20T12:18:28;8.50;99.90
21023;DHT22;10669;51.076;3.714;2022-11-20T12:30:00;8.40;99.90
21023;DHT22;10669;51.076;3.714;2022-11-20T12:41:14;8.30;99.90
21023;DHT22;10669;51.076;3.714;2022-11-20T12:50:21;8.40;99.90
21023;DHT22;10669;51.076;3.714;2022-11-20T12:59:02;8.30;99.90
21023;DHT22;10669;51.076;3.714;2022-11-20T13:01:54;8.20;99.90
21023;DHT22;10669;51.076;3.714;2022-11-20T13:07:12;8.30;99.90
21023;DHT22;10669;51.076;3.714;2022-11-20T13:09:44;8.40;99.90
21023;DHT22;10669;51.076;3.714;2022-11-20T13:12:24;8.40;99.90
21023;DHT22;10669;51.076;3.714;2022-11-20T13:15:18;8.40;99.90
21023;DHT22;10669;51.076;3.714;2022-11-20T13:18:01;8.30;99.90
21023;DHT22;10669;51.076;3.714;2022-11-20T13:20:30;8.20;99.90
21023;DHT22;10669;51.076;3.714;2022-11-20T13:22:59;8.30;99.90
21023;DHT22;10669;51.076;3.714;2022-11-20T13:27:54;8.30;99.90
21023;DHT22;10669;51.076;3.714;2022-11-20T13:30:26;8.30;99.90
21023;DHT22;10669;51.076;3.714;2022-11-20T13:38:10;8.30;99.90
21023;DHT22;10669;51.076;3.714;2022-11-20T13:40:54;8.30;99.90
21023;DHT22;10669;51.076;3.714;2022-11-20T13:43:40;8.30;99.90
21023;DHT22;10669;51.076;3.714;2022-11-20T13:46:09;8.30;99.90
21023;DHT22;10669;51.076;3.714;2022-11-20T13:48:46;8.30;99.90
21023;DHT22;10669;51.076;3.714;2022-11-20T13:51:25;8.40;99.90
21023;DHT22;10669;51.076;3.714;2022-11-20T13:56:56;8.50;99.90
21023;DHT22;10669;51.076;3.714;2022-11-20T13:59:53;8.50;99.90
21023;DHT22;10669;51.076;3.714;2022-11-20T14:02:22;8.50;99.90
21023;DHT22;10669;51.076;3.714;2022-11-20T14:04:50;8.60;99.90
21023;DHT22;10669;51.076;3.714;2022-11-20T14:07:23;8.60;99.90
21023;DHT22;10669;51.076;3.714;2022-11-20T14:09:55;8.70;99.90
21023;DHT22;10669;51.076;3.714;2022-11-20T14:12:32;8.70;99.90
21023;DHT22;10669;51.076;3.714;2022-11-20T14:14:59;8.80;99.90
21023;DHT22;10669;51.076;3.714;2022-11-20T14:17:35;8.90;99.90
21023;DHT22;10669;51.076;3.714;2022-11-20T14:20:11;9.00;99.90
21023;DHT22;10669;51.076;3.714;2022-11-20T14:22:37;9.00;99.90
21023;DHT22;10669;51.076;3.714;2022-11-20T14:25:24;9.00;99.90
21023;DHT22;10669;51.076;3.714;2022-11-20T14:28:00;9.20;99.90
21023;DHT22;10669;51.076;3.714;2022-11-20T14:30:28;9.30;99.90
21023;DHT22;10669;51.076;3.714;2022-11-20T14:33:00;9.50;99.90
21023;DHT22;10669;51.076;3.714;2022-11-20T14:35:30;9.50;99.90
21023;DHT22;10669;51.076;3.714;2022-11-20T14:37:56;9.50;99.90
21023;DHT22;10669;51.076;3.714;2022-11-20T14:40:34;9.60;99.90
21023;DHT22;10669;51.076;3.714;2022-11-20T14:43:27;9.60;99.90
21023;DHT22;10669;51.076;3.714;2022-11-20T14:46:01;9.80;99.90
21023;DHT22;10669;51.076;3.714;2022-11-20T14:51:04;10.00;99.90
21023;DHT22;10669;51.076;3.714;2022-11-20T14:53:30;10.00;99.90
21023;DHT22;10669;51.076;3.714;2022-11-20T14:55:59;10.10;99.90
21023;DHT22;10669;51.076;3.714;2022-11-20T14:58:28;10.20;99.90
21023;DHT22;10669;51.076;3.714;2022-11-20T15:01:06;10.30;99.90
21023;DHT22;10669;51.076;3.714;2022-11-20T15:03:40;10.30;99.90
21023;DHT22;10669;51.076;3.714;2022-11-20T15:06:07;10.40;99.90
21023;DHT22;10669;51.076;3.714;2022-11-20T15:08:35;10.30;99.90
21023;DHT22;10669;51.076;3.714;2022-11-20T15:11:01;10.40;99.90
21023;DHT22;10669;51.076;3.714;2022-11-20T15:13:36;10.10;99.90
21023;DHT22;10669;51.076;3.714;2022-11-20T15:16:04;10.10;99.90
21023;DHT22;10669;51.076;3.714;2022-11-20T15:18:39;10.10;99.90
21023;DHT22;10669;51.076;3.714;2022-11-20T15:21:14;10.00;99.90
21023;DHT22;10669;51.076;3.714;2022-11-20T15:23:42;10.10;99.90
21023;DHT22;10669;51.076;3.714;2022-11-20T15:26:09;9.90;98.60
21023;DHT22;10669;51.076;3.714;2022-11-20T15:28:46;9.90;99.90
21023;DHT22;10669;51.076;3.714;2022-11-20T15:31:23;9.90;99.90
21023;DHT22;10669;51.076;3.714;2022-11-20T15:33:49;9.70;99.90
21023;DHT22;10669;51.076;3.714;2022-11-20T15:36:15;9.60;99.90
21023;DHT22;10669;51.076;3.714;2022-11-20T15:38:40;9.60;99.90
21023;DHT22;10669;51.076;3.714;2022-11-20T15:41:07;9.60;99.90
21023;DHT22;10669;51.076;3.714;2022-11-20T15:43:33;9.60;99.20
21023;DHT22;10669;51.076;3.714;2022-11-20T15:46:03;9.50;98.70
21023;DHT22;10669;51.076;3.714;2022-11-20T15:48:35;9.50;98.30
21023;DHT22;10669;51.076;3.714;2022-11-20T15:53:37;9.40;98.20
21023;DHT22;10669;51.076;3.714;2022-11-20T15:56:04;9.50;99.00
21023;DHT22;10669;51.076;3.714;2022-11-20T15:58:30;9.50;97.20
21023;DHT22;10669;51.076;3.714;2022-11-20T16:00:55;9.50;97.10
21023;DHT22;10669;51.076;3.714;2022-11-20T16:03:22;9.50;96.80
21023;DHT22;10669;51.076;3.714;2022-11-20T16:05:47;9.60;96.20
21023;DHT22;10669;51.076;3.714;2022-11-20T16:08:13;9.60;95.80
21023;DHT22;10669;51.076;3.714;2022-11-20T16:10:40;9.60;97.00
21023;DHT22;10669;51.076;3.714;2022-11-20T16:13:17;9.40;96.70
21023;DHT22;10669;51.076;3.714;2022-11-20T16:16:07;9.30;99.10
21023;DHT22;10669;51.076;3.714;2022-11-20T16:18:35;9.30;99.80
21023;DHT22;10669;51.076;3.714;2022-11-20T16:21:02;9.20;98.70
21023;DHT22;10669;51.076;3.714;2022-11-20T16:23:29;9.10;99.90
21023;DHT22;10669;51.076;3.714;2022-11-20T16:25:55;9.20;99.90
21023;DHT22;10669;51.076;3.714;2022-11-20T16:28:21;9.20;99.90
21023;DHT22;10669;51.076;3.714;2022-11-20T16:30:47;9.40;99.90
21023;DHT22;10669;51.076;3.714;2022-11-20T16:33:15;9.60;99.90
21023;DHT22;10669;51.076;3.714;2022-11-20T16:35:42;9.60;99.90
21023;DHT22;10669;51.076;3.714;2022-11-20T16:38:08;9.70;99.90
21023;DHT22;10669;51.076;3.714;2022-11-20T16:40:37;9.60;99.90
21023;DHT22;10669;51.076;3.714;2022-11-20T16:43:09;9.40;99.90
21023;DHT22;10669;51.076;3.714;2022-11-20T16:45:41;9.40;99.90
21023;DHT22;10669;51.076;3.714;2022-11-20T16:48:13;9.40;99.90
21023;DHT22;10669;51.076;3.714;2022-11-20T16:50:48;9.40;99.90
21023;DHT22;10669;51.076;3.714;2022-11-20T16:53:16;9.60;99.90
21023;DHT22;10669;51.076;3.714;2022-11-20T16:55:42;9.70;99.90
21023;DHT22;10669;51.076;3.714;2022-11-20T16:58:08;9.80;99.90
21023;DHT22;10669;51.076;3.714;2022-11-20T17:00:36;9.60;99.90
21023;DHT22;10669;51.076;3.714;2022-11-20T17:03:03;9.70;99.90
21023;DHT22;10669;51.076;3.714;2022-11-20T17:05:29;9.90;99.90
21023;DHT22;10669;51.076;3.714;2022-11-20T17:07:56;9.90;99.70
21023;DHT22;10669;51.076;3.714;2022-11-20T17:10:21;9.70;99.90
21023;DHT22;10669;51.076;3.714;2022-11-20T17:12:48;9.70;99.90
21023;DHT22;10669;51.076;3.714;2022-11-20T17:15:14;9.60;99.90
21023;DHT22;10669;51.076;3.714;2022-11-20T17:17:39;9.50;99.90
21023;DHT22;10669;51.076;3.714;2022-11-20T17:20:05;9.50;99.90
21023;DHT22;10669;51.076;3.714;2022-11-20T17:22:31;9.50;99.90
21023;DHT22;10669;51.076;3.714;2022-11-20T17:24:57;9.30;99.90
21023;DHT22;10669;51.076;3.714;2022-11-20T17:27:22;9.30;99.90
21023;DHT22;10669;51.076;3.714;2022-11-20T17:29:48;9.20;99.90
21023;DHT22;10669;51.076;3.714;2022-11-20T17:32:14;9.20;99.90
21023;DHT22;10669;51.076;3.714;2022-11-20T17:34:40;9.10;99.90
21023;DHT22;10669;51.076;3.714;2022-11-20T17:37:07;9.10;99.90
21023;DHT22;10669;51.076;3.714;2022-11-20T17:39:33;9.20;99.90
21023;DHT22;10669;51.076;3.714;2022-11-20T17:41:59;9.30;99.90
21023;DHT22;10669;51.076;3.714;2022-11-20T17:44:45;9.40;99.90
21023;DHT22;10669;51.076;3.714;2022-11-20T17:47:12;9.40;99.90
21023;DHT22;10669;51.076;3.714;2022-11-20T17:49:41;9.50;99.90
21023;DHT22;10669;51.076;3.714;2022-11-20T17:52:07;9.50;99.90
21023;DHT22;10669;51.076;3.714;2022-11-20T17:54:34;9.60;99.90